createdAt,value
2023-03-19T00:00:00.110Z,24.7
2023-03-19T00:05:52.331Z,24.3
2023-03-19T00:11:29.781Z,24
2023-03-19T00:17:06.762Z,23.9
2023-03-19T00:23:00.086Z,23.7
2023-03-19T00:28:53.172Z,23.6
2023-03-19T00:34:46.181Z,23.6
2023-03-19T00:40:40.384Z,23.9
2023-03-19T00:46:18.749Z,24.5
2023-03-19T00:51:56.643Z,24.3
2023-03-19T00:57:34.252Z,23.9
2023-03-19T01:03:11.623Z,23.7
2023-03-19T01:08:49.144Z,23.5
2023-03-19T01:14:42.682Z,23.3
2023-03-19T01:20:35.503Z,23.3
2023-03-19T01:26:27.339Z,23.1
2023-03-19T01:32:04.751Z,23.5
2023-03-19T01:37:42.211Z,23.9
2023-03-19T01:43:19.749Z,24.3
2023-03-19T01:49:13.903Z,23.9
2023-03-19T01:54:36.408Z,23.5
2023-03-19T02:00:29.874Z,23.3
2023-03-19T02:06:07.907Z,23.1
2023-03-19T02:11:59.120Z,23.1
2023-03-19T02:17:37.083Z,22.9
2023-03-19T02:23:15.217Z,23
2023-03-19T02:28:52.378Z,23.4
2023-03-19T02:34:30.546Z,23.9
2023-03-19T02:40:07.900Z,23.9
2023-03-19T02:45:28.672Z,23.6
2023-03-19T02:51:06.711Z,23.3
2023-03-19T02:56:43.671Z,23.1
2023-03-19T03:02:21.211Z,22.9
2023-03-19T03:07:58.402Z,22.8
2023-03-19T03:13:05.255Z,22.7
2023-03-19T03:18:58.296Z,22.9
2023-03-19T03:24:52.410Z,23.3
2023-03-19T03:30:45.019Z,23.4
2023-03-19T03:36:22.226Z,23.6
2023-03-19T03:42:15.502Z,24
2023-03-19T03:48:07.772Z,23.7
2023-03-19T03:53:45.145Z,23.3
2023-03-19T03:59:06.476Z,23.1
2023-03-19T04:04:44.471Z,22.9
2023-03-19T04:10:36.316Z,22.7
2023-03-19T04:15:57.900Z,22.6
2023-03-19T04:21:50.785Z,22.7
2023-03-19T04:27:12.050Z,23
2023-03-19T04:32:49.441Z,23.6
2023-03-19T04:38:42.197Z,23.8
2023-03-19T04:44:35.333Z,23.4
2023-03-19T04:50:27.520Z,23.1
2023-03-19T04:56:20.847Z,22.9
2023-03-19T05:02:14.269Z,22.7
2023-03-19T05:07:51.265Z,22.6
2023-03-19T05:13:43.404Z,22.9
2023-03-19T05:19:35.894Z,23.5
2023-03-19T05:24:57.530Z,23.8
2023-03-19T05:30:51.547Z,23.4
2023-03-19T05:36:31.393Z,23
2023-03-19T05:42:08.405Z,22.8
2023-03-19T05:48:01.340Z,22.6
2023-03-19T05:53:53.905Z,22.5
2023-03-19T05:59:47.798Z,22.4
2023-03-19T06:05:43.191Z,22.6
2023-03-19T06:11:35.573Z,23.1
2023-03-19T06:17:28.821Z,23.7
2023-03-19T06:23:21.922Z,23.4
2023-03-19T06:29:14.188Z,23
2023-03-19T06:35:06.946Z,22.8
2023-03-19T06:40:59.938Z,22.6
2023-03-19T06:46:52.408Z,22.4
2023-03-19T06:52:45.760Z,22.3
2023-03-19T06:58:38.475Z,22.4
2023-03-19T07:04:32.116Z,22.9
2023-03-19T07:10:24.959Z,23.2
2023-03-19T07:16:21.693Z,23.2
2023-03-19T07:22:14.650Z,23.6
2023-03-19T07:28:07.637Z,23.3
2023-03-19T07:33:44.665Z,22.9
2023-03-19T07:39:38.005Z,22.6
2023-03-19T07:45:45.725Z,22.4
2023-03-19T07:51:55.967Z,22.4
2023-03-19T07:57:50.134Z,22.7
2023-03-19T08:03:45.538Z,23.4
2023-03-19T08:09:39.076Z,23.3
2023-03-19T08:15:32.458Z,23.1
2023-03-19T08:21:25.807Z,22.8
2023-03-19T08:27:22.207Z,23
2023-03-19T08:33:15.414Z,23.6
2023-03-19T08:39:07.806Z,23.3
2023-03-19T08:45:00.924Z,23.1
2023-03-19T08:50:53.681Z,22.9
2023-03-19T08:56:45.997Z,23.3
2023-03-19T09:02:39.145Z,23.6
2023-03-19T09:08:16.267Z,23.3
2023-03-19T09:14:11.013Z,23.1
2023-03-19T09:20:05.323Z,23
2023-03-19T09:25:44.372Z,23.6
2023-03-19T09:31:20.911Z,23.4
2023-03-19T09:36:59.833Z,23.1
2023-03-19T09:42:54.692Z,23
2023-03-19T09:48:34.546Z,23.1
2023-03-19T09:54:11.944Z,23.7
2023-03-19T09:59:49.914Z,23.4
2023-03-19T10:05:27.437Z,23.2
2023-03-19T10:11:20.340Z,23
2023-03-19T10:17:16.675Z,23.4
2023-03-19T10:23:10.307Z,23.6
2023-03-19T10:28:48.527Z,23.3
2023-03-19T10:34:41.909Z,23.1
2023-03-19T10:40:35.045Z,23.2
2023-03-19T10:46:29.033Z,23.7
2023-03-19T10:52:21.623Z,23.4
2023-03-19T10:58:14.889Z,23.1
2023-03-19T11:03:52.246Z,22.8
2023-03-19T11:09:57.897Z,22.7
2023-03-19T11:15:50.379Z,23
2023-03-19T11:21:43.636Z,23.1
2023-03-19T11:27:23.124Z,22.9
2023-03-19T11:33:10.951Z,22.7
2023-03-19T11:39:05.247Z,22.6
2023-03-19T11:44:42.287Z,23
2023-03-19T11:50:28.734Z,23
2023-03-19T11:56:08.946Z,22.8
2023-03-19T12:02:01.770Z,22.6
2023-03-19T12:07:54.715Z,22.6
2023-03-19T12:13:48.746Z,23.1
2023-03-19T12:19:47.516Z,22.9
2023-03-19T12:25:39.978Z,22.8
2023-03-19T12:31:32.923Z,22.6
2023-03-19T12:37:26.713Z,22.8
2023-03-19T12:43:19.509Z,23.1
2023-03-19T12:49:00.435Z,22.8
2023-03-19T12:54:38.301Z,22.6
2023-03-19T13:00:31.084Z,22.6
2023-03-19T13:06:24.450Z,22.8
2023-03-19T13:12:17.665Z,23.1
2023-03-19T13:18:11.618Z,22.8
2023-03-19T13:24:04.838Z,22.7
2023-03-19T13:29:42.847Z,22.7
2023-03-19T13:35:37.315Z,23
2023-03-19T13:41:30.224Z,23
2023-03-19T13:47:25.173Z,22.8
2023-03-19T13:53:29.235Z,22.6
2023-03-19T13:59:31.505Z,22.8
2023-03-19T14:05:24.803Z,23.3
2023-03-19T14:11:18.039Z,23.1
2023-03-19T14:16:57.148Z,22.8
2023-03-19T14:23:12.412Z,22.7
2023-03-19T14:29:41.879Z,23
2023-03-19T14:35:22.457Z,23.2
2023-03-19T14:41:02.358Z,22.9
2023-03-19T14:46:55.782Z,22.8
2023-03-19T14:52:51.918Z,22.7
2023-03-19T14:58:29.951Z,23
2023-03-19T15:04:24.855Z,23.3
2023-03-19T15:10:22.576Z,23.1
2023-03-19T15:16:16.401Z,22.8
2023-03-19T15:21:45.838Z,22.8
2023-03-19T15:27:52.852Z,23
2023-03-19T15:35:22.228Z,23.3
2023-03-19T15:41:16.195Z,22.9
2023-03-19T15:47:09.524Z,22.8
2023-03-19T15:53:03.224Z,22.8
2023-03-19T15:58:55.620Z,23.1
2023-03-19T16:05:23.517Z,23.1
2023-03-19T16:11:16.555Z,22.9
2023-03-19T16:17:09.924Z,22.8
2023-03-19T16:23:03.795Z,22.6
2023-03-19T16:28:56.942Z,22.8
2023-03-19T16:34:50.371Z,23.2
2023-03-19T16:40:43.204Z,22.9
2023-03-19T16:46:36.408Z,22.8
2023-03-19T16:52:12.665Z,22.6
2023-03-19T16:58:05.494Z,22.7
2023-03-19T17:03:57.893Z,23
2023-03-19T17:09:50.783Z,22.9
2023-03-19T17:15:28.253Z,22.7
2023-03-19T17:21:20.372Z,22.6
2023-03-19T17:26:59.557Z,22.5
2023-03-19T17:32:25.071Z,22.8
2023-03-19T17:38:18.053Z,23
2023-03-19T17:44:14.485Z,22.8
2023-03-19T17:49:51.946Z,22.6
2023-03-19T17:55:16.070Z,22.5
2023-03-19T18:01:09.646Z,22.4
2023-03-19T18:07:04.034Z,22.4
2023-03-19T18:12:41.779Z,22.8
2023-03-19T18:18:35.558Z,22.8
2023-03-19T18:24:13.914Z,22.6
2023-03-19T18:29:52.643Z,22.4
2023-03-19T18:35:46.439Z,22.4
2023-03-19T18:41:42.244Z,22.4
2023-03-19T18:47:20.712Z,22.3
2023-03-19T18:53:09.231Z,22.4
2023-03-19T18:59:04.975Z,22.8
2023-03-19T19:04:57.228Z,22.6
2023-03-19T19:11:01.208Z,22.4
2023-03-19T19:16:56.646Z,22.3
2023-03-19T19:22:49.443Z,22.3
2023-03-19T19:27:41.218Z,22.2
2023-03-19T19:33:20.424Z,22.2
2023-03-19T19:39:14.516Z,22.5
2023-03-19T19:45:09.917Z,22.6
2023-03-19T19:51:05.692Z,22.4
2023-03-19T19:56:46.083Z,22.3
2023-03-19T20:02:36.667Z,22.2
2023-03-19T20:08:00.072Z,22.1
2023-03-19T20:13:37.914Z,22.1
2023-03-19T20:19:31.738Z,22.2
2023-03-19T20:25:10.312Z,22.6
2023-03-19T20:30:33.585Z,22.3
2023-03-19T20:36:49.063Z,22.3
2023-03-19T20:42:42.237Z,22.2
2023-03-19T20:48:21.358Z,22.1
2023-03-19T20:53:59.369Z,22.1
2023-03-19T20:59:53.042Z,22.1
2023-03-19T21:05:33.928Z,22.6
2023-03-19T21:11:23.593Z,22.4
2023-03-19T21:17:17.058Z,22.2
2023-03-19T21:23:08.642Z,22
2023-03-19T21:29:00.842Z,21.9
2023-03-19T21:34:53.399Z,21.9
2023-03-19T21:40:45.888Z,21.8
2023-03-19T21:46:39.987Z,21.7
2023-03-19T21:52:39.994Z,21.8
2023-03-19T21:58:38.923Z,22.1
2023-03-19T22:04:32.407Z,22.8
2023-03-19T22:10:27.480Z,22.9
2023-03-19T22:16:20.001Z,22.6
2023-03-19T22:22:13.028Z,22.3
2023-03-19T22:28:08.812Z,22.1
2023-03-19T22:33:48.018Z,21.9
2023-03-19T22:39:26.364Z,21.9
2023-03-19T22:45:19.963Z,21.8
2023-03-19T22:50:43.473Z,22.1
2023-03-19T22:56:21.901Z,22.8
2023-03-19T23:01:58.401Z,23.1
2023-03-19T23:08:07.309Z,22.9
2023-03-19T23:13:59.284Z,22.4
2023-03-19T23:20:05.985Z,22.3
2023-03-19T23:25:42.641Z,22
2023-03-19T23:31:36.872Z,22
2023-03-19T23:37:41.941Z,21.9
2023-03-19T23:43:37.910Z,22.1
2023-03-19T23:49:30.306Z,22.8
2023-03-19T23:55:23.331Z,23.3
